sensor_id;sensor_type;location;lat;lon;timestamp;pressure;altitude;pressure_sealevel;temperature;humidity
27040;BME280;14589;51.578;7.306;2023-08-24T00:01:42;101300.16;;;17.87;100.00
27040;BME280;14589;51.578;7.306;2023-08-24T00:04:12;101305.28;;;17.90;100.00
27040;BME280;14589;51.578;7.306;2023-08-24T00:06:42;101290.94;;;17.79;100.00
27040;BME280;14589;51.578;7.306;2023-08-24T00:09:13;101303.28;;;17.84;100.00
27040;BME280;14589;51.578;7.306;2023-08-24T00:11:45;101300.72;;;17.82;100.00
27040;BME280;14589;51.578;7.306;2023-08-24T00:14:16;101295.41;;;17.81;100.00
27040;BME280;14589;51.578;7.306;2023-08-24T00:16:46;101297.66;;;17.77;100.00
27040;BME280;14589;51.578;7.306;2023-08-24T00:19:16;101302.78;;;17.80;100.00
27040;BME280;14589;51.578;7.306;2023-08-24T00:21:47;101290.81;;;17.73;100.00
27040;BME280;14589;51.578;7.306;2023-08-24T00:24:18;101293.25;;;17.68;100.00
27040;BME280;14589;51.578;7.306;2023-08-24T00:26:48;101292.22;;;17.69;100.00
27040;BME280;14589;51.578;7.306;2023-08-24T00:29:18;101283.16;;;17.60;100.00
27040;BME280;14589;51.578;7.306;2023-08-24T00:31:49;101285.22;;;17.58;100.00
27040;BME280;14589;51.578;7.306;2023-08-24T00:34:19;101285.03;;;17.60;100.00
27040;BME280;14589;51.578;7.306;2023-08-24T00:36:49;101271.38;;;17.52;100.00
27040;BME280;14589;51.578;7.306;2023-08-24T00:39:20;101274.28;;;17.50;100.00
27040;BME280;14589;51.578;7.306;2023-08-24T00:41:50;101271.72;;;17.49;100.00
27040;BME280;14589;51.578;7.306;2023-08-24T00:44:21;101261.00;;;17.39;100.00
27040;BME280;14589;51.578;7.306;2023-08-24T00:46:52;101274.72;;;17.39;100.00
27040;BME280;14589;51.578;7.306;2023-08-24T00:49:22;101276.94;;;17.35;100.00
27040;BME280;14589;51.578;7.306;2023-08-24T00:51:53;101270.44;;;17.36;100.00
27040;BME280;14589;51.578;7.306;2023-08-24T00:54:23;101269.09;;;17.32;100.00
27040;BME280;14589;51.578;7.306;2023-08-24T00:56:55;101268.78;;;17.27;100.00
27040;BME280;14589;51.578;7.306;2023-08-24T00:59:26;101274.25;;;17.27;100.00
27040;BME280;14589;51.578;7.306;2023-08-24T01:01:56;101259.88;;;17.25;100.00
27040;BME280;14589;51.578;7.306;2023-08-24T01:04:27;101264.50;;;17.25;100.00
27040;BME280;14589;51.578;7.306;2023-08-24T01:06:57;101262.31;;;17.20;100.00
27040;BME280;14589;51.578;7.306;2023-08-24T01:09:28;101258.03;;;17.18;100.00
27040;BME280;14589;51.578;7.306;2023-08-24T01:15:09;101274.47;;;17.18;100.00
27040;BME280;14589;51.578;7.306;2023-08-24T01:17:43;101269.84;;;17.18;100.00
27040;BME280;14589;51.578;7.306;2023-08-24T01:20:15;101273.97;;;17.14;100.00
27040;BME280;14589;51.578;7.306;2023-08-24T01:22:55;101274.31;;;17.11;100.00
27040;BME280;14589;51.578;7.306;2023-08-24T01:25:37;101269.38;;;17.07;100.00
27040;BME280;14589;51.578;7.306;2023-08-24T01:28:09;101274.88;;;17.07;100.00
27040;BME280;14589;51.578;7.306;2023-08-24T01:30:44;101277.78;;;17.05;100.00
27040;BME280;14589;51.578;7.306;2023-08-24T01:33:14;101269.91;;;17.02;100.00
27040;BME280;14589;51.578;7.306;2023-08-24T01:35:44;101268.22;;;17.01;100.00
27040;BME280;14589;51.578;7.306;2023-08-24T01:38:15;101253.34;;;16.95;100.00
27040;BME280;14589;51.578;7.306;2023-08-24T01:43:52;101255.56;;;16.92;100.00
27040;BME280;14589;51.578;7.306;2023-08-24T01:46:24;101267.91;;;16.88;100.00
27040;BME280;14589;51.578;7.306;2023-08-24T01:48:55;101254.38;;;16.86;100.00
27040;BME280;14589;51.578;7.306;2023-08-24T01:51:26;101246.69;;;16.82;100.00
27040;BME280;14589;51.578;7.306;2023-08-24T01:53:57;101259.06;;;16.78;100.00
27040;BME280;14589;51.578;7.306;2023-08-24T01:56:28;101258.69;;;16.81;100.00
27040;BME280;14589;51.578;7.306;2023-08-24T01:58:59;101249.97;;;16.77;100.00
27040;BME280;14589;51.578;7.306;2023-08-24T02:01:29;101249.28;;;16.75;100.00
27040;BME280;14589;51.578;7.306;2023-08-24T02:04:00;101242.63;;;16.70;100.00
27040;BME280;14589;51.578;7.306;2023-08-24T02:06:30;101251.53;;;16.72;100.00
27040;BME280;14589;51.578;7.306;2023-08-24T02:09:01;101244.69;;;16.68;100.00
27040;BME280;14589;51.578;7.306;2023-08-24T02:11:33;101242.97;;;16.67;100.00
27040;BME280;14589;51.578;7.306;2023-08-24T02:14:05;101226.56;;;16.58;100.00
27040;BME280;14589;51.578;7.306;2023-08-24T02:16:40;101217.81;;;16.55;100.00
27040;BME280;14589;51.578;7.306;2023-08-24T02:19:11;101224.34;;;16.54;100.00
27040;BME280;14589;51.578;7.306;2023-08-24T02:21:41;101225.38;;;16.53;100.00
27040;BME280;14589;51.578;7.306;2023-08-24T02:24:11;101235.47;;;16.52;100.00
27040;BME280;14589;51.578;7.306;2023-08-24T02:26:42;101235.47;;;16.52;100.00
27040;BME280;14589;51.578;7.306;2023-08-24T02:29:13;101242.66;;;16.53;100.00
27040;BME280;14589;51.578;7.306;2023-08-24T02:31:44;101237.53;;;16.50;100.00
27040;BME280;14589;51.578;7.306;2023-08-24T02:34:14;101244.03;;;16.49;100.00
27040;BME280;14589;51.578;7.306;2023-08-24T02:36:44;101245.41;;;16.45;100.00
27040;BME280;14589;51.578;7.306;2023-08-24T02:39:15;101235.47;;;16.44;100.00
27040;BME280;14589;51.578;7.306;2023-08-24T02:41:46;101230.69;;;16.38;100.00
27040;BME280;14589;51.578;7.306;2023-08-24T02:44:18;101230.53;;;16.40;100.00
27040;BME280;14589;51.578;7.306;2023-08-24T02:46:48;101215.34;;;16.29;100.00
27040;BME280;14589;51.578;7.306;2023-08-24T02:49:21;101239.94;;;16.37;100.00
27040;BME280;14589;51.578;7.306;2023-08-24T02:51:52;101225.38;;;16.37;100.00
27040;BME280;14589;51.578;7.306;2023-08-24T02:54:22;101224.03;;;16.33;100.00
27040;BME280;14589;51.578;7.306;2023-08-24T02:56:53;101233.81;;;16.35;100.00
27040;BME280;14589;51.578;7.306;2023-08-24T02:59:23;101231.72;;;16.37;100.00
27040;BME280;14589;51.578;7.306;2023-08-24T03:01:54;101222.50;;;16.30;100.00
27040;BME280;14589;51.578;7.306;2023-08-24T03:04:24;101225.44;;;16.29;100.00
27040;BME280;14589;51.578;7.306;2023-08-24T03:06:56;101232.59;;;16.38;100.00
27040;BME280;14589;51.578;7.306;2023-08-24T03:09:27;101237.72;;;16.41;100.00
27040;BME280;14589;51.578;7.306;2023-08-24T03:11:57;101229.69;;;16.39;100.00
27040;BME280;14589;51.578;7.306;2023-08-24T03:14:28;101217.69;;;16.40;100.00
27040;BME280;14589;51.578;7.306;2023-08-24T03:16:59;101225.56;;;16.43;100.00
27040;BME280;14589;51.578;7.306;2023-08-24T03:19:29;101243.34;;;16.47;100.00
27040;BME280;14589;51.578;7.306;2023-08-24T03:22:00;101238.59;;;16.41;100.00
27040;BME280;14589;51.578;7.306;2023-08-24T03:24:30;101233.59;;;16.45;100.00
27040;BME280;14589;51.578;7.306;2023-08-24T03:27:01;101237.88;;;16.47;100.00
27040;BME280;14589;51.578;7.306;2023-08-24T03:29:31;101223.13;;;16.48;100.00
27040;BME280;14589;51.578;7.306;2023-08-24T03:32:02;101212.19;;;16.48;100.00
27040;BME280;14589;51.578;7.306;2023-08-24T03:34:32;101225.38;;;16.53;100.00
27040;BME280;14589;51.578;7.306;2023-08-24T03:37:02;101232.19;;;16.57;100.00
27040;BME280;14589;51.578;7.306;2023-08-24T03:39:36;101224.84;;;16.57;100.00
27040;BME280;14589;51.578;7.306;2023-08-24T03:42:07;101220.38;;;16.56;100.00
27040;BME280;14589;51.578;7.306;2023-08-24T03:44:37;101215.28;;;16.53;100.00
27040;BME280;14589;51.578;7.306;2023-08-24T03:47:08;101227.25;;;16.61;100.00
27040;BME280;14589;51.578;7.306;2023-08-24T03:49:42;101230.66;;;16.63;100.00
27040;BME280;14589;51.578;7.306;2023-08-24T03:52:13;101233.41;;;16.63;100.00
27040;BME280;14589;51.578;7.306;2023-08-24T03:54:44;101228.63;;;16.65;100.00
27040;BME280;14589;51.578;7.306;2023-08-24T03:57:15;101246.06;;;16.72;100.00
27040;BME280;14589;51.578;7.306;2023-08-24T03:59:46;101243.13;;;16.73;100.00
27040;BME280;14589;51.578;7.306;2023-08-24T04:02:17;101230.66;;;16.71;100.00
27040;BME280;14589;51.578;7.306;2023-08-24T04:04:47;101233.22;;;16.72;100.00
27040;BME280;14589;51.578;7.306;2023-08-24T04:07:18;101241.25;;;16.74;100.00
27040;BME280;14589;51.578;7.306;2023-08-24T04:09:51;101247.91;;;16.79;100.00
27040;BME280;14589;51.578;7.306;2023-08-24T04:12:22;101239.88;;;16.78;100.00
27040;BME280;14589;51.578;7.306;2023-08-24T04:14:53;101247.72;;;16.81;100.00
27040;BME280;14589;51.578;7.306;2023-08-24T04:17:25;101231.13;;;16.74;100.00
27040;BME280;14589;51.578;7.306;2023-08-24T04:19:55;101237.78;;;16.80;100.00
27040;BME280;14589;51.578;7.306;2023-08-24T04:22:26;101234.41;;;16.78;100.00
27040;BME280;14589;51.578;7.306;2023-08-24T04:24:56;101216.91;;;16.79;100.00
27040;BME280;14589;51.578;7.306;2023-08-24T04:27:26;101196.69;;;16.80;100.00
27040;BME280;14589;51.578;7.306;2023-08-24T04:29:57;101205.75;;;16.88;100.00
27040;BME280;14589;51.578;7.306;2023-08-24T04:32:27;101199.59;;;16.86;100.00
27040;BME280;14589;51.578;7.306;2023-08-24T04:34:58;101209.34;;;16.89;100.00
27040;BME280;14589;51.578;7.306;2023-08-24T04:37:28;101197.88;;;16.85;100.00
27040;BME280;14589;51.578;7.306;2023-08-24T04:39:59;101206.94;;;16.86;100.00
27040;BME280;14589;51.578;7.306;2023-08-24T04:42:29;101200.81;;;16.84;100.00
27040;BME280;14589;51.578;7.306;2023-08-24T04:44:59;101217.19;;;16.92;100.00
27040;BME280;14589;51.578;7.306;2023-08-24T04:47:30;101216.47;;;16.98;100.00
27040;BME280;14589;51.578;7.306;2023-08-24T04:50:00;101212.88;;;16.97;100.00
27040;BME280;14589;51.578;7.306;2023-08-24T04:52:31;101198.53;;;16.95;100.00
27040;BME280;14589;51.578;7.306;2023-08-24T04:55:01;101196.34;;;16.91;100.00
27040;BME280;14589;51.578;7.306;2023-08-24T04:57:33;101198.88;;;16.92;100.00
27040;BME280;14589;51.578;7.306;2023-08-24T05:00:04;101187.25;;;16.90;100.00
27040;BME280;14589;51.578;7.306;2023-08-24T05:02:35;101185.56;;;16.89;100.00
27040;BME280;14589;51.578;7.306;2023-08-24T05:05:06;101181.59;;;16.92;100.00
27040;BME280;14589;51.578;7.306;2023-08-24T05:07:38;101169.13;;;16.89;100.00
27040;BME280;14589;51.578;7.306;2023-08-24T05:10:08;101157.00;;;16.84;100.00
27040;BME280;14589;51.578;7.306;2023-08-24T05:12:38;101143.78;;;16.87;100.00
27040;BME280;14589;51.578;7.306;2023-08-24T05:15:09;101141.88;;;16.88;100.00
27040;BME280;14589;51.578;7.306;2023-08-24T05:17:40;101119.50;;;16.84;100.00
27040;BME280;14589;51.578;7.306;2023-08-24T05:20:10;101118.78;;;16.90;100.00
27040;BME280;14589;51.578;7.306;2023-08-24T05:22:42;101110.72;;;16.89;100.00
27040;BME280;14589;51.578;7.306;2023-08-24T05:25:12;101103.34;;;16.89;100.00
27040;BME280;14589;51.578;7.306;2023-08-24T05:27:43;101094.63;;;16.86;100.00
27040;BME280;14589;51.578;7.306;2023-08-24T05:30:13;101089.09;;;16.94;100.00
27040;BME280;14589;51.578;7.306;2023-08-24T05:32:44;101087.22;;;16.94;100.00
27040;BME280;14589;51.578;7.306;2023-08-24T05:35:14;101106.38;;;17.03;100.00
27040;BME280;14589;51.578;7.306;2023-08-24T05:37:44;101101.53;;;17.05;100.00
27040;BME280;14589;51.578;7.306;2023-08-24T05:40:15;101092.09;;;17.07;100.00
27040;BME280;14589;51.578;7.306;2023-08-24T05:42:45;101105.56;;;17.17;100.00
27040;BME280;14589;51.578;7.306;2023-08-24T05:45:16;101100.94;;;17.17;100.00
27040;BME280;14589;51.578;7.306;2023-08-24T05:47:46;101097.47;;;17.23;100.00
27040;BME280;14589;51.578;7.306;2023-08-24T05:50:16;101096.72;;;17.29;100.00
27040;BME280;14589;51.578;7.306;2023-08-24T05:52:47;101083.69;;;17.31;100.00
27040;BME280;14589;51.578;7.306;2023-08-24T05:55:17;101090.16;;;17.38;100.00
27040;BME280;14589;51.578;7.306;2023-08-24T05:57:48;101091.31;;;17.44;100.00
27040;BME280;14589;51.578;7.306;2023-08-24T06:00:18;101102.00;;;17.54;100.00
27040;BME280;14589;51.578;7.306;2023-08-24T06:02:49;101109.69;;;17.58;100.00
27040;BME280;14589;51.578;7.306;2023-08-24T06:05:19;101115.13;;;17.66;100.00
27040;BME280;14589;51.578;7.306;2023-08-24T06:07:49;101112.03;;;17.69;100.00
27040;BME280;14589;51.578;7.306;2023-08-24T06:10:20;101110.59;;;17.73;100.00
27040;BME280;14589;51.578;7.306;2023-08-24T06:12:51;101101.16;;;17.76;100.00
27040;BME280;14589;51.578;7.306;2023-08-24T06:17:53;101101.91;;;17.85;100.00
27040;BME280;14589;51.578;7.306;2023-08-24T06:20:24;101106.19;;;17.87;100.00
27040;BME280;14589;51.578;7.306;2023-08-24T06:22:54;101113.94;;;17.98;100.00
27040;BME280;14589;51.578;7.306;2023-08-24T06:25:25;101116.97;;;18.03;100.00
27040;BME280;14589;51.578;7.306;2023-08-24T06:27:56;101105.06;;;18.11;100.00
27040;BME280;14589;51.578;7.306;2023-08-24T06:30:26;101092.09;;;18.19;100.00
27040;BME280;14589;51.578;7.306;2023-08-24T06:32:57;101103.81;;;18.28;100.00
27040;BME280;14589;51.578;7.306;2023-08-24T06:35:27;101088.69;;;18.17;100.00
27040;BME280;14589;51.578;7.306;2023-08-24T06:37:57;101086.41;;;18.21;100.00
27040;BME280;14589;51.578;7.306;2023-08-24T06:40:28;101084.59;;;18.43;100.00
27040;BME280;14589;51.578;7.306;2023-08-24T06:42:59;101097.69;;;18.55;100.00
27040;BME280;14589;51.578;7.306;2023-08-24T06:45:31;101092.94;;;18.64;100.00
27040;BME280;14589;51.578;7.306;2023-08-24T06:48:01;101082.09;;;18.77;100.00
27040;BME280;14589;51.578;7.306;2023-08-24T06:50:33;101094.19;;;18.97;100.00
27040;BME280;14589;51.578;7.306;2023-08-24T06:53:04;101086.75;;;19.13;100.00
27040;BME280;14589;51.578;7.306;2023-08-24T06:55:34;101082.13;;;19.20;100.00
27040;BME280;14589;51.578;7.306;2023-08-24T06:58:05;101082.75;;;19.36;100.00
27040;BME280;14589;51.578;7.306;2023-08-24T07:00:35;101075.34;;;19.58;100.00
27040;BME280;14589;51.578;7.306;2023-08-24T07:03:05;101080.56;;;19.74;100.00
27040;BME280;14589;51.578;7.306;2023-08-24T07:05:36;101082.16;;;19.90;100.00
27040;BME280;14589;51.578;7.306;2023-08-24T07:08:06;101062.91;;;19.97;100.00
27040;BME280;14589;51.578;7.306;2023-08-24T07:10:37;101062.16;;;20.09;100.00
27040;BME280;14589;51.578;7.306;2023-08-24T07:13:07;101073.13;;;20.37;100.00
27040;BME280;14589;51.578;7.306;2023-08-24T07:15:38;101068.34;;;20.52;100.00
27040;BME280;14589;51.578;7.306;2023-08-24T07:18:08;101068.00;;;20.75;100.00
27040;BME280;14589;51.578;7.306;2023-08-24T07:20:39;101068.66;;;20.84;100.00
27040;BME280;14589;51.578;7.306;2023-08-24T07:23:09;101068.50;;;21.05;99.73
27040;BME280;14589;51.578;7.306;2023-08-24T07:25:40;101069.59;;;21.17;98.77
27040;BME280;14589;51.578;7.306;2023-08-24T07:28:11;101065.81;;;21.31;97.27
27040;BME280;14589;51.578;7.306;2023-08-24T07:30:41;101067.75;;;21.44;94.71
27040;BME280;14589;51.578;7.306;2023-08-24T07:33:12;101066.25;;;21.55;94.45
27040;BME280;14589;51.578;7.306;2023-08-24T07:35:42;101068.59;;;21.71;92.74
27040;BME280;14589;51.578;7.306;2023-08-24T07:38:13;101078.34;;;21.93;92.11
27040;BME280;14589;51.578;7.306;2023-08-24T07:40:43;101066.91;;;21.96;88.77
27040;BME280;14589;51.578;7.306;2023-08-24T07:43:13;101060.91;;;22.12;89.16
27040;BME280;14589;51.578;7.306;2023-08-24T07:45:44;101060.66;;;22.34;88.95
27040;BME280;14589;51.578;7.306;2023-08-24T07:48:14;101067.13;;;22.59;87.86
27040;BME280;14589;51.578;7.306;2023-08-24T07:50:45;101055.78;;;22.80;87.22
27040;BME280;14589;51.578;7.306;2023-08-24T07:53:16;101050.59;;;22.90;84.80
27040;BME280;14589;51.578;7.306;2023-08-24T07:55:46;101039.06;;;23.00;82.38
27040;BME280;14589;51.578;7.306;2023-08-24T07:58:17;101040.81;;;23.26;82.68
27040;BME280;14589;51.578;7.306;2023-08-24T08:00:49;101039.53;;;23.22;77.39
27040;BME280;14589;51.578;7.306;2023-08-24T08:03:20;101030.75;;;23.31;79.50
27040;BME280;14589;51.578;7.306;2023-08-24T08:05:50;101033.25;;;23.64;77.41
27040;BME280;14589;51.578;7.306;2023-08-24T08:08:21;101034.53;;;23.68;78.90
27040;BME280;14589;51.578;7.306;2023-08-24T08:10:58;101040.53;;;23.84;77.92
27040;BME280;14589;51.578;7.306;2023-08-24T08:13:32;101043.38;;;23.77;77.06
27040;BME280;14589;51.578;7.306;2023-08-24T08:16:03;101050.19;;;23.99;76.36
27040;BME280;14589;51.578;7.306;2023-08-24T08:18:35;101040.91;;;24.12;74.48
27040;BME280;14589;51.578;7.306;2023-08-24T08:21:09;101055.41;;;24.07;72.99
27040;BME280;14589;51.578;7.306;2023-08-24T08:23:41;101050.31;;;24.29;74.15
27040;BME280;14589;51.578;7.306;2023-08-24T08:26:12;101047.22;;;24.55;74.70
27040;BME280;14589;51.578;7.306;2023-08-24T08:28:43;101051.13;;;24.66;73.11
27040;BME280;14589;51.578;7.306;2023-08-24T08:31:14;101034.53;;;24.78;69.99
27040;BME280;14589;51.578;7.306;2023-08-24T08:33:44;101025.97;;;24.97;71.30
27040;BME280;14589;51.578;7.306;2023-08-24T08:36:15;101029.88;;;25.20;70.50
27040;BME280;14589;51.578;7.306;2023-08-24T08:38:45;101028.97;;;25.37;69.16
27040;BME280;14589;51.578;7.306;2023-08-24T08:41:17;101036.75;;;25.59;69.17
27040;BME280;14589;51.578;7.306;2023-08-24T08:43:48;101029.03;;;25.72;67.18
27040;BME280;14589;51.578;7.306;2023-08-24T08:46:19;101020.47;;;25.86;65.10
27040;BME280;14589;51.578;7.306;2023-08-24T08:48:52;101011.75;;;25.94;64.76
27040;BME280;14589;51.578;7.306;2023-08-24T08:51:23;101010.38;;;26.19;63.81
27040;BME280;14589;51.578;7.306;2023-08-24T08:53:54;101014.53;;;26.29;64.77
27040;BME280;14589;51.578;7.306;2023-08-24T08:56:24;101017.47;;;26.50;63.18
27040;BME280;14589;51.578;7.306;2023-08-24T08:58:56;101014.50;;;26.69;59.95
27040;BME280;14589;51.578;7.306;2023-08-24T09:01:29;101009.81;;;26.86;61.89
27040;BME280;14589;51.578;7.306;2023-08-24T09:04:00;101012.00;;;26.95;59.38
27040;BME280;14589;51.578;7.306;2023-08-24T09:06:31;101004.50;;;27.13;59.13
27040;BME280;14589;51.578;7.306;2023-08-24T09:09:02;100997.09;;;27.18;56.62
27040;BME280;14589;51.578;7.306;2023-08-24T09:11:33;100998.03;;;27.24;57.44
27040;BME280;14589;51.578;7.306;2023-08-24T09:14:03;100988.50;;;27.36;57.70
27040;BME280;14589;51.578;7.306;2023-08-24T09:16:34;100986.72;;;27.47;58.04
27040;BME280;14589;51.578;7.306;2023-08-24T09:19:05;100970.59;;;27.66;56.09
27040;BME280;14589;51.578;7.306;2023-08-24T09:21:38;100960.34;;;27.71;56.07
27040;BME280;14589;51.578;7.306;2023-08-24T09:24:10;100957.56;;;27.88;56.05
27040;BME280;14589;51.578;7.306;2023-08-24T09:26:41;100958.09;;;28.29;56.87
27040;BME280;14589;51.578;7.306;2023-08-24T09:29:15;100945.72;;;28.41;53.57
27040;BME280;14589;51.578;7.306;2023-08-24T09:31:46;100950.25;;;28.47;53.04
27040;BME280;14589;51.578;7.306;2023-08-24T09:34:20;100945.56;;;28.75;51.06
27040;BME280;14589;51.578;7.306;2023-08-24T09:36:51;100940.94;;;28.90;50.79
27040;BME280;14589;51.578;7.306;2023-08-24T09:39:21;100928.53;;;29.08;50.59
27040;BME280;14589;51.578;7.306;2023-08-24T09:41:53;100917.75;;;29.22;48.99
27040;BME280;14589;51.578;7.306;2023-08-24T09:44:23;100901.03;;;29.27;48.92
27040;BME280;14589;51.578;7.306;2023-08-24T09:46:54;100889.66;;;29.33;48.82
27040;BME280;14589;51.578;7.306;2023-08-24T09:49:24;100875.03;;;29.26;50.07
27040;BME280;14589;51.578;7.306;2023-08-24T09:51:57;100882.44;;;29.38;50.75
27040;BME280;14589;51.578;7.306;2023-08-24T09:54:27;100879.00;;;29.30;48.41
27040;BME280;14589;51.578;7.306;2023-08-24T09:56:59;100860.72;;;29.55;49.64
27040;BME280;14589;51.578;7.306;2023-08-24T09:59:31;100860.28;;;29.73;48.41
27040;BME280;14589;51.578;7.306;2023-08-24T10:02:02;100867.97;;;29.98;47.28
27040;BME280;14589;51.578;7.306;2023-08-24T10:04:36;100866.56;;;30.00;48.85
27040;BME280;14589;51.578;7.306;2023-08-24T10:07:09;100873.56;;;29.98;46.41
27040;BME280;14589;51.578;7.306;2023-08-24T10:09:58;100875.59;;;30.18;46.65
27040;BME280;14589;51.578;7.306;2023-08-24T10:12:44;100880.88;;;30.14;46.69
27040;BME280;14589;51.578;7.306;2023-08-24T10:15:18;100890.81;;;30.57;47.38
27040;BME280;14589;51.578;7.306;2023-08-24T10:17:49;100901.91;;;30.22;45.39
27040;BME280;14589;51.578;7.306;2023-08-24T10:20:21;100907.25;;;30.43;45.01
27040;BME280;14589;51.578;7.306;2023-08-24T10:22:52;100912.09;;;30.63;44.23
27040;BME280;14589;51.578;7.306;2023-08-24T10:25:23;100914.00;;;30.47;45.47
27040;BME280;14589;51.578;7.306;2023-08-24T10:27:54;100918.28;;;30.70;45.73
27040;BME280;14589;51.578;7.306;2023-08-24T10:30:26;100916.31;;;30.81;44.61
27040;BME280;14589;51.578;7.306;2023-08-24T10:32:59;100924.47;;;30.82;43.85
27040;BME280;14589;51.578;7.306;2023-08-24T10:35:31;100921.72;;;31.13;44.94
27040;BME280;14589;51.578;7.306;2023-08-24T10:38:02;100922.81;;;31.07;42.94
27040;BME280;14589;51.578;7.306;2023-08-24T10:40:36;100913.28;;;31.18;42.03
27040;BME280;14589;51.578;7.306;2023-08-24T10:43:07;100908.78;;;31.47;42.87
27040;BME280;14589;51.578;7.306;2023-08-24T10:48:25;100900.91;;;31.69;43.38
27040;BME280;14589;51.578;7.306;2023-08-24T10:53:53;100897.59;;;31.02;43.53
27040;BME280;14589;51.578;7.306;2023-08-24T10:56:36;100885.81;;;30.84;43.81
27040;BME280;14589;51.578;7.306;2023-08-24T10:59:17;100884.16;;;31.09;44.61
27040;BME280;14589;51.578;7.306;2023-08-24T11:04:22;100891.41;;;31.00;44.91
27040;BME280;14589;51.578;7.306;2023-08-24T11:09:24;100881.63;;;31.07;43.45
27040;BME280;14589;51.578;7.306;2023-08-24T11:11:57;100876.50;;;31.55;43.73
27040;BME280;14589;51.578;7.306;2023-08-24T11:14:28;100871.75;;;31.70;45.55
27040;BME280;14589;51.578;7.306;2023-08-24T11:17:01;100860.00;;;31.43;44.77
27040;BME280;14589;51.578;7.306;2023-08-24T11:19:49;100854.63;;;31.57;42.85
27040;BME280;14589;51.578;7.306;2023-08-24T11:22:20;100855.19;;;31.69;42.11
27040;BME280;14589;51.578;7.306;2023-08-24T11:24:53;100851.19;;;31.90;43.46
27040;BME280;14589;51.578;7.306;2023-08-24T11:27:25;100850.91;;;31.87;43.21
27040;BME280;14589;51.578;7.306;2023-08-24T11:29:59;100847.19;;;32.01;43.50
27040;BME280;14589;51.578;7.306;2023-08-24T11:32:30;100837.09;;;32.00;40.98
27040;BME280;14589;51.578;7.306;2023-08-24T11:35:01;100821.13;;;31.96;39.87
27040;BME280;14589;51.578;7.306;2023-08-24T11:37:31;100819.72;;;31.93;43.11
27040;BME280;14589;51.578;7.306;2023-08-24T11:40:01;100822.31;;;31.85;43.56
27040;BME280;14589;51.578;7.306;2023-08-24T11:42:36;100803.22;;;31.87;41.54
27040;BME280;14589;51.578;7.306;2023-08-24T11:45:11;100797.44;;;31.63;42.25
27040;BME280;14589;51.578;7.306;2023-08-24T11:47:43;100806.94;;;31.72;44.06
27040;BME280;14589;51.578;7.306;2023-08-24T11:50:13;100804.44;;;31.65;43.75
27040;BME280;14589;51.578;7.306;2023-08-24T11:52:44;100812.25;;;31.73;44.64
27040;BME280;14589;51.578;7.306;2023-08-24T11:55:14;100812.84;;;31.55;42.51
27040;BME280;14589;51.578;7.306;2023-08-24T11:57:45;100815.16;;;31.33;44.47
27040;BME280;14589;51.578;7.306;2023-08-24T12:00:15;100806.22;;;31.26;44.23
27040;BME280;14589;51.578;7.306;2023-08-24T12:02:47;100810.19;;;31.10;43.05
27040;BME280;14589;51.578;7.306;2023-08-24T12:05:22;100807.38;;;30.89;44.38
27040;BME280;14589;51.578;7.306;2023-08-24T12:07:53;100808.47;;;30.93;45.16
27040;BME280;14589;51.578;7.306;2023-08-24T12:10:24;100804.00;;;30.82;45.19
27040;BME280;14589;51.578;7.306;2023-08-24T12:13:05;100820.81;;;30.92;43.72
27040;BME280;14589;51.578;7.306;2023-08-24T12:15:36;100819.97;;;31.02;44.13
27040;BME280;14589;51.578;7.306;2023-08-24T12:18:12;100809.91;;;31.16;43.53
27040;BME280;14589;51.578;7.306;2023-08-24T12:20:42;100809.56;;;31.33;42.59
27040;BME280;14589;51.578;7.306;2023-08-24T12:23:13;100810.06;;;31.50;41.31
27040;BME280;14589;51.578;7.306;2023-08-24T12:25:44;100803.91;;;31.48;40.85
27040;BME280;14589;51.578;7.306;2023-08-24T12:28:15;100786.56;;;31.41;40.11
27040;BME280;14589;51.578;7.306;2023-08-24T12:30:51;100791.53;;;31.54;40.08
27040;BME280;14589;51.578;7.306;2023-08-24T12:33:28;100787.34;;;31.57;40.91
27040;BME280;14589;51.578;7.306;2023-08-24T12:35:58;100780.94;;;31.46;40.86
27040;BME280;14589;51.578;7.306;2023-08-24T12:38:29;100775.41;;;31.01;41.09
27040;BME280;14589;51.578;7.306;2023-08-24T12:40:59;100778.22;;;31.16;41.04
27040;BME280;14589;51.578;7.306;2023-08-24T12:43:30;100771.78;;;31.05;41.92
27040;BME280;14589;51.578;7.306;2023-08-24T12:46:00;100763.94;;;31.12;41.91
27040;BME280;14589;51.578;7.306;2023-08-24T12:48:30;100746.00;;;31.08;42.14
27040;BME280;14589;51.578;7.306;2023-08-24T12:51:01;100747.69;;;31.09;41.77
27040;BME280;14589;51.578;7.306;2023-08-24T12:53:31;100737.03;;;30.96;41.13
27040;BME280;14589;51.578;7.306;2023-08-24T12:56:01;100733.66;;;30.99;41.45
27040;BME280;14589;51.578;7.306;2023-08-24T13:01:11;100730.63;;;30.80;41.48
27040;BME280;14589;51.578;7.306;2023-08-24T13:03:42;100713.81;;;30.75;42.05
27040;BME280;14589;51.578;7.306;2023-08-24T13:06:12;100720.00;;;30.77;42.86
27040;BME280;14589;51.578;7.306;2023-08-24T13:08:43;100710.47;;;30.68;42.39
27040;BME280;14589;51.578;7.306;2023-08-24T13:11:14;100700.69;;;30.50;44.89
27040;BME280;14589;51.578;7.306;2023-08-24T13:13:44;100699.84;;;30.35;46.20
27040;BME280;14589;51.578;7.306;2023-08-24T13:16:17;100696.50;;;30.18;47.97
27040;BME280;14589;51.578;7.306;2023-08-24T13:18:48;100690.56;;;29.89;48.74
27040;BME280;14589;51.578;7.306;2023-08-24T13:21:20;100678.22;;;29.69;48.93
27040;BME280;14589;51.578;7.306;2023-08-24T13:23:50;100673.84;;;29.16;53.90
27040;BME280;14589;51.578;7.306;2023-08-24T13:26:21;100664.84;;;29.04;58.08
27040;BME280;14589;51.578;7.306;2023-08-24T13:28:53;100672.34;;;28.99;64.48